sensor_id;sensor_type;location;lat;lon;timestamp;pressure;altitude;pressure_sealevel;temperature;humidity
6094;BME280;19964;42.060;24.700;2022-07-25T00:02:05;97396.78;;;25.96;56.53
6094;BME280;19964;42.060;24.700;2022-07-25T00:04:32;97414.28;;;25.77;56.53
6094;BME280;19964;42.060;24.700;2022-07-25T00:06:59;97412.28;;;25.74;55.64
6094;BME280;19964;42.060;24.700;2022-07-25T00:09:27;97410.75;;;25.73;55.54
6094;BME280;19964;42.060;24.700;2022-07-25T00:11:54;97431.91;;;25.61;55.72
6094;BME280;19964;42.060;24.700;2022-07-25T00:14:21;97443.28;;;25.32;59.63
6094;BME280;19964;42.060;24.700;2022-07-25T00:16:47;97455.47;;;24.15;69.53
6094;BME280;19964;42.060;24.700;2022-07-25T00:19:14;97442.22;;;23.07;77.45
6094;BME280;19964;42.060;24.700;2022-07-25T00:21:41;97454.97;;;22.08;92.21
6094;BME280;19964;42.060;24.700;2022-07-25T00:24:08;97448.38;;;21.97;98.14
6094;BME280;19964;42.060;24.700;2022-07-25T00:26:36;97439.63;;;21.88;95.89
6094;BME280;19964;42.060;24.700;2022-07-25T00:29:03;97441.97;;;21.89;100.00
6094;BME280;19964;42.060;24.700;2022-07-25T00:31:30;97446.13;;;22.04;97.88
6094;BME280;19964;42.060;24.700;2022-07-25T00:33:56;97447.94;;;21.81;100.00
6094;BME280;19964;42.060;24.700;2022-07-25T00:36:23;97457.00;;;21.89;99.44
6094;BME280;19964;42.060;24.700;2022-07-25T00:38:50;97465.56;;;21.94;100.00
6094;BME280;19964;42.060;24.700;2022-07-25T00:41:17;97461.97;;;22.04;96.22
6094;BME280;19964;42.060;24.700;2022-07-25T00:43:45;97442.94;;;21.93;96.47
6094;BME280;19964;42.060;24.700;2022-07-25T00:46:13;97435.09;;;21.53;100.00
6094;BME280;19964;42.060;24.700;2022-07-25T00:48:40;97443.75;;;21.67;100.00
6094;BME280;19964;42.060;24.700;2022-07-25T00:51:08;97456.25;;;21.88;99.89
6094;BME280;19964;42.060;24.700;2022-07-25T00:53:35;97447.97;;;22.03;93.45
6094;BME280;19964;42.060;24.700;2022-07-25T00:56:04;97447.81;;;22.00;96.74
6094;BME280;19964;42.060;24.700;2022-07-25T00:58:31;97402.22;;;21.72;91.03
6094;BME280;19964;42.060;24.700;2022-07-25T01:01:00;97443.84;;;22.11;83.43
6094;BME280;19964;42.060;24.700;2022-07-25T01:03:27;97438.25;;;22.12;83.31
6094;BME280;19964;42.060;24.700;2022-07-25T01:05:54;97431.22;;;22.08;84.12
6094;BME280;19964;42.060;24.700;2022-07-25T01:08:21;97417.09;;;21.68;92.37
6094;BME280;19964;42.060;24.700;2022-07-25T01:10:49;97420.59;;;21.64;92.93
6094;BME280;19964;42.060;24.700;2022-07-25T01:13:16;97429.34;;;22.00;89.58
6094;BME280;19964;42.060;24.700;2022-07-25T01:15:43;97426.50;;;22.19;87.98
6094;BME280;19964;42.060;24.700;2022-07-25T01:18:11;97431.00;;;22.40;85.65
6094;BME280;19964;42.060;24.700;2022-07-25T01:20:40;97430.81;;;22.14;96.35
6094;BME280;19964;42.060;24.700;2022-07-25T01:23:07;97418.25;;;22.42;86.15
6094;BME280;19964;42.060;24.700;2022-07-25T01:25:33;97416.41;;;22.43;90.04
6094;BME280;19964;42.060;24.700;2022-07-25T01:28:00;97407.78;;;22.06;97.41
6094;BME280;19964;42.060;24.700;2022-07-25T01:30:27;97409.34;;;21.85;98.91
6094;BME280;19964;42.060;24.700;2022-07-25T01:32:54;97401.13;;;22.09;97.09
6094;BME280;19964;42.060;24.700;2022-07-25T01:35:21;97405.44;;;22.27;92.88
6094;BME280;19964;42.060;24.700;2022-07-25T01:37:49;97406.09;;;22.33;93.24
6094;BME280;19964;42.060;24.700;2022-07-25T01:40:16;97397.69;;;22.08;98.96
6094;BME280;19964;42.060;24.700;2022-07-25T01:42:43;97389.91;;;21.81;100.00
6094;BME280;19964;42.060;24.700;2022-07-25T01:45:11;97345.56;;;21.70;99.71
6094;BME280;19964;42.060;24.700;2022-07-25T01:47:39;97373.53;;;21.71;100.00
6094;BME280;19964;42.060;24.700;2022-07-25T01:50:07;97377.09;;;21.88;100.00
6094;BME280;19964;42.060;24.700;2022-07-25T01:52:35;97379.28;;;21.59;100.00
6094;BME280;19964;42.060;24.700;2022-07-25T01:55:04;97380.50;;;21.53;100.00
6094;BME280;19964;42.060;24.700;2022-07-25T01:57:31;97374.16;;;21.54;99.13
6094;BME280;19964;42.060;24.700;2022-07-25T01:59:58;97374.06;;;21.46;100.00
6094;BME280;19964;42.060;24.700;2022-07-25T02:02:25;97363.19;;;21.61;95.67
6094;BME280;19964;42.060;24.700;2022-07-25T02:04:52;97355.09;;;21.79;88.98
6094;BME280;19964;42.060;24.700;2022-07-25T02:07:19;97355.41;;;21.78;94.16
6094;BME280;19964;42.060;24.700;2022-07-25T02:09:46;97342.53;;;21.76;94.21
6094;BME280;19964;42.060;24.700;2022-07-25T02:12:14;97342.19;;;21.91;87.69
6094;BME280;19964;42.060;24.700;2022-07-25T02:14:41;97339.47;;;22.05;85.82
6094;BME280;19964;42.060;24.700;2022-07-25T02:17:08;97328.69;;;22.24;82.97
6094;BME280;19964;42.060;24.700;2022-07-25T02:19:35;97325.97;;;22.37;80.75
6094;BME280;19964;42.060;24.700;2022-07-25T02:22:02;97330.97;;;22.39;80.58
6094;BME280;19964;42.060;24.700;2022-07-25T02:24:29;97317.06;;;22.25;83.34
6094;BME280;19964;42.060;24.700;2022-07-25T02:26:56;97316.53;;;22.45;79.28
6094;BME280;19964;42.060;24.700;2022-07-25T02:29:25;97314.97;;;22.44;79.09
6094;BME280;19964;42.060;24.700;2022-07-25T02:31:51;97310.16;;;22.46;78.80
6094;BME280;19964;42.060;24.700;2022-07-25T02:34:18;97292.59;;;22.41;80.07
6094;BME280;19964;42.060;24.700;2022-07-25T02:36:45;97298.84;;;22.54;77.68
6094;BME280;19964;42.060;24.700;2022-07-25T02:39:12;97305.16;;;22.66;75.01
6094;BME280;19964;42.060;24.700;2022-07-25T02:41:39;97297.59;;;22.82;73.57
6094;BME280;19964;42.060;24.700;2022-07-25T02:44:06;97295.41;;;22.84;77.43
6094;BME280;19964;42.060;24.700;2022-07-25T02:46:34;97298.66;;;22.42;81.96
6094;BME280;19964;42.060;24.700;2022-07-25T02:49:01;97294.44;;;22.01;89.48
6094;BME280;19964;42.060;24.700;2022-07-25T02:51:29;97293.19;;;21.77;96.05
6094;BME280;19964;42.060;24.700;2022-07-25T02:53:56;97300.56;;;21.66;94.24
6094;BME280;19964;42.060;24.700;2022-07-25T02:56:22;97306.00;;;21.70;94.86
6094;BME280;19964;42.060;24.700;2022-07-25T02:58:50;97308.97;;;21.68;94.44
6094;BME280;19964;42.060;24.700;2022-07-25T03:01:16;97307.03;;;21.60;99.15
6094;BME280;19964;42.060;24.700;2022-07-25T03:03:45;97320.78;;;21.71;95.10
6094;BME280;19964;42.060;24.700;2022-07-25T03:06:11;97308.78;;;21.87;94.12
6094;BME280;19964;42.060;24.700;2022-07-25T03:08:38;97339.25;;;21.93;88.40
6094;BME280;19964;42.060;24.700;2022-07-25T03:11:05;97337.22;;;21.90;93.01
6094;BME280;19964;42.060;24.700;2022-07-25T03:13:32;97336.13;;;21.69;97.80
6094;BME280;19964;42.060;24.700;2022-07-25T03:15:59;97340.84;;;21.58;97.79
6094;BME280;19964;42.060;24.700;2022-07-25T03:18:26;97343.28;;;21.55;97.89
6094;BME280;19964;42.060;24.700;2022-07-25T03:20:54;97342.03;;;21.52;97.00
6094;BME280;19964;42.060;24.700;2022-07-25T03:23:21;97342.25;;;21.42;97.18
6094;BME280;19964;42.060;24.700;2022-07-25T03:25:51;97347.91;;;21.49;95.91
6094;BME280;19964;42.060;24.700;2022-07-25T03:28:19;97354.38;;;21.65;91.56
6094;BME280;19964;42.060;24.700;2022-07-25T03:30:46;97351.34;;;21.72;91.92
6094;BME280;19964;42.060;24.700;2022-07-25T03:33:13;97350.94;;;21.78;89.39
6094;BME280;19964;42.060;24.700;2022-07-25T03:35:40;97359.81;;;22.04;86.13
6094;BME280;19964;42.060;24.700;2022-07-25T03:38:08;97347.25;;;22.10;84.53
6094;BME280;19964;42.060;24.700;2022-07-25T03:40:35;97361.31;;;22.28;83.89
6094;BME280;19964;42.060;24.700;2022-07-25T03:43:02;97360.97;;;22.43;81.43
6094;BME280;19964;42.060;24.700;2022-07-25T03:45:28;97370.03;;;22.28;85.45
6094;BME280;19964;42.060;24.700;2022-07-25T03:47:55;97371.13;;;22.27;83.73
6094;BME280;19964;42.060;24.700;2022-07-25T03:50:22;97366.81;;;22.31;84.62
6094;BME280;19964;42.060;24.700;2022-07-25T03:52:49;97368.22;;;22.37;82.34
6094;BME280;19964;42.060;24.700;2022-07-25T03:55:17;97374.25;;;22.29;85.79
6094;BME280;19964;42.060;24.700;2022-07-25T03:57:44;97363.81;;;22.24;87.44
6094;BME280;19964;42.060;24.700;2022-07-25T04:00:11;97372.72;;;22.37;85.51
6094;BME280;19964;42.060;24.700;2022-07-25T04:02:38;97376.41;;;22.27;88.58
6094;BME280;19964;42.060;24.700;2022-07-25T04:05:06;97372.50;;;22.25;89.15
6094;BME280;19964;42.060;24.700;2022-07-25T04:07:33;97377.78;;;22.25;89.05
6094;BME280;19964;42.060;24.700;2022-07-25T04:10:00;97376.69;;;22.26;89.70
6094;BME280;19964;42.060;24.700;2022-07-25T04:12:28;97382.03;;;22.34;90.14
6094;BME280;19964;42.060;24.700;2022-07-25T04:14:55;97386.56;;;22.42;89.13
6094;BME280;19964;42.060;24.700;2022-07-25T04:17:21;97374.31;;;22.77;83.70
6094;BME280;19964;42.060;24.700;2022-07-25T04:19:48;97380.88;;;22.88;84.11
6094;BME280;19964;42.060;24.700;2022-07-25T04:22:15;97376.25;;;22.93;82.80
6094;BME280;19964;42.060;24.700;2022-07-25T04:24:42;97382.75;;;22.87;85.04
6094;BME280;19964;42.060;24.700;2022-07-25T04:27:09;97373.75;;;22.88;83.02
6094;BME280;19964;42.060;24.700;2022-07-25T04:29:37;97378.06;;;22.84;85.55
6094;BME280;19964;42.060;24.700;2022-07-25T04:32:05;97371.88;;;22.89;85.46
6094;BME280;19964;42.060;24.700;2022-07-25T04:34:32;97375.09;;;22.77;87.29
6094;BME280;19964;42.060;24.700;2022-07-25T04:36:58;97381.97;;;22.87;84.78
6094;BME280;19964;42.060;24.700;2022-07-25T04:39:25;97384.81;;;22.99;83.44
6094;BME280;19964;42.060;24.700;2022-07-25T04:41:52;97381.22;;;23.03;81.35
6094;BME280;19964;42.060;24.700;2022-07-25T04:44:19;97384.19;;;23.02;83.68
6094;BME280;19964;42.060;24.700;2022-07-25T04:46:47;97387.94;;;23.10;80.82
6094;BME280;19964;42.060;24.700;2022-07-25T04:49:14;97392.47;;;23.18;84.26
6094;BME280;19964;42.060;24.700;2022-07-25T04:51:41;97389.34;;;23.16;81.88
6094;BME280;19964;42.060;24.700;2022-07-25T04:54:07;97387.47;;;23.08;84.85
6094;BME280;19964;42.060;24.700;2022-07-25T04:56:34;97393.44;;;23.30;79.45
6094;BME280;19964;42.060;24.700;2022-07-25T04:59:01;97396.56;;;23.41;79.63
6094;BME280;19964;42.060;24.700;2022-07-25T05:01:28;97400.78;;;23.42;81.32
6094;BME280;19964;42.060;24.700;2022-07-25T05:03:56;97396.44;;;23.46;80.87
6094;BME280;19964;42.060;24.700;2022-07-25T05:06:23;97394.28;;;23.48;79.27
6094;BME280;19964;42.060;24.700;2022-07-25T05:08:50;97394.28;;;23.48;81.25
6094;BME280;19964;42.060;24.700;2022-07-25T05:11:16;97404.69;;;23.36;82.47
6094;BME280;19964;42.060;24.700;2022-07-25T05:13:44;97403.28;;;23.47;80.80
6094;BME280;19964;42.060;24.700;2022-07-25T05:16:10;97395.97;;;23.52;83.20
6094;BME280;19964;42.060;24.700;2022-07-25T05:18:37;97407.03;;;23.63;82.16
6094;BME280;19964;42.060;24.700;2022-07-25T05:21:10;97405.31;;;23.67;83.77
6094;BME280;19964;42.060;24.700;2022-07-25T05:23:37;97398.47;;;23.66;81.43
6094;BME280;19964;42.060;24.700;2022-07-25T05:26:04;97405.81;;;23.77;83.30
6094;BME280;19964;42.060;24.700;2022-07-25T05:28:31;97409.06;;;23.83;80.06
6094;BME280;19964;42.060;24.700;2022-07-25T05:30:58;97411.25;;;23.98;80.54
6094;BME280;19964;42.060;24.700;2022-07-25T05:33:25;97404.56;;;24.01;79.12
6094;BME280;19964;42.060;24.700;2022-07-25T05:35:52;97406.72;;;24.07;80.22
6094;BME280;19964;42.060;24.700;2022-07-25T05:38:20;97393.66;;;24.11;80.15
6094;BME280;19964;42.060;24.700;2022-07-25T05:40:47;97409.81;;;24.35;81.06
6094;BME280;19964;42.060;24.700;2022-07-25T05:43:16;97410.22;;;24.54;79.29
6094;BME280;19964;42.060;24.700;2022-07-25T05:45:43;97407.91;;;24.52;82.65
6094;BME280;19964;42.060;24.700;2022-07-25T05:48:11;97402.91;;;24.59;78.79
6094;BME280;19964;42.060;24.700;2022-07-25T05:50:38;97401.75;;;24.78;77.25
6094;BME280;19964;42.060;24.700;2022-07-25T05:53:05;97410.31;;;24.83;77.39
6094;BME280;19964;42.060;24.700;2022-07-25T05:55:34;97411.53;;;24.94;74.70
6094;BME280;19964;42.060;24.700;2022-07-25T05:58:00;97410.09;;;24.97;76.70
6094;BME280;19964;42.060;24.700;2022-07-25T06:00:27;97406.59;;;25.13;75.42
6094;BME280;19964;42.060;24.700;2022-07-25T06:02:57;97411.91;;;25.34;71.06
6094;BME280;19964;42.060;24.700;2022-07-25T06:05:23;97412.59;;;25.51;71.29
6094;BME280;19964;42.060;24.700;2022-07-25T06:07:50;97409.13;;;25.59;71.77
6094;BME280;19964;42.060;24.700;2022-07-25T06:10:17;97413.91;;;25.87;70.56
6094;BME280;19964;42.060;24.700;2022-07-25T06:12:45;97406.66;;;25.96;69.23
6094;BME280;19964;42.060;24.700;2022-07-25T06:15:12;97391.03;;;26.15;70.32
6094;BME280;19964;42.060;24.700;2022-07-25T06:17:39;97416.75;;;26.23;67.99
6094;BME280;19964;42.060;24.700;2022-07-25T06:20:06;97413.69;;;26.45;66.77
6094;BME280;19964;42.060;24.700;2022-07-25T06:22:34;97413.59;;;26.54;67.01
6094;BME280;19964;42.060;24.700;2022-07-25T06:25:01;97414.88;;;26.68;67.39
6094;BME280;19964;42.060;24.700;2022-07-25T06:27:28;97415.00;;;26.96;64.25
6094;BME280;19964;42.060;24.700;2022-07-25T06:29:56;97410.72;;;27.03;63.34
6094;BME280;19964;42.060;24.700;2022-07-25T06:32:23;97410.69;;;27.40;64.39
6094;BME280;19964;42.060;24.700;2022-07-25T06:34:50;97401.81;;;27.36;63.42
6094;BME280;19964;42.060;24.700;2022-07-25T06:37:16;97407.56;;;27.50;62.56
6094;BME280;19964;42.060;24.700;2022-07-25T06:39:43;97407.56;;;27.62;63.87
6094;BME280;19964;42.060;24.700;2022-07-25T06:42:10;97407.66;;;27.65;62.91
6094;BME280;19964;42.060;24.700;2022-07-25T06:44:37;97405.00;;;27.93;62.46
6094;BME280;19964;42.060;24.700;2022-07-25T06:47:05;97404.22;;;28.04;60.95
6094;BME280;19964;42.060;24.700;2022-07-25T06:49:37;97399.03;;;27.96;61.38
6094;BME280;19964;42.060;24.700;2022-07-25T06:52:04;97406.81;;;27.89;60.55
6094;BME280;19964;42.060;24.700;2022-07-25T06:54:31;97389.59;;;27.86;58.48
6094;BME280;19964;42.060;24.700;2022-07-25T06:56:58;97402.72;;;27.79;60.26
6094;BME280;19964;42.060;24.700;2022-07-25T06:59:25;97388.19;;;27.77;59.93
6094;BME280;19964;42.060;24.700;2022-07-25T07:01:52;97404.09;;;28.01;59.41
6094;BME280;19964;42.060;24.700;2022-07-25T07:04:20;97404.69;;;28.22;58.24
6094;BME280;19964;42.060;24.700;2022-07-25T07:06:47;97412.09;;;28.01;59.06
6094;BME280;19964;42.060;24.700;2022-07-25T07:09:14;97400.34;;;28.02;59.51
6094;BME280;19964;42.060;24.700;2022-07-25T07:11:41;97408.75;;;28.04;57.79
6094;BME280;19964;42.060;24.700;2022-07-25T07:14:08;97412.69;;;28.22;58.43
6094;BME280;19964;42.060;24.700;2022-07-25T07:16:38;97370.44;;;28.08;58.89
6094;BME280;19964;42.060;24.700;2022-07-25T07:19:05;97403.47;;;28.20;58.56
6094;BME280;19964;42.060;24.700;2022-07-25T07:21:36;97403.72;;;28.14;57.02
6094;BME280;19964;42.060;24.700;2022-07-25T07:24:04;97404.25;;;28.63;57.45
6094;BME280;19964;42.060;24.700;2022-07-25T07:26:30;97416.72;;;28.90;54.61
6094;BME280;19964;42.060;24.700;2022-07-25T07:28:57;97408.91;;;29.13;54.20
6094;BME280;19964;42.060;24.700;2022-07-25T07:31:24;97408.19;;;28.85;56.30
6094;BME280;19964;42.060;24.700;2022-07-25T07:33:51;97413.34;;;29.25;53.76
6094;BME280;19964;42.060;24.700;2022-07-25T07:36:18;97406.44;;;29.93;52.88
6094;BME280;19964;42.060;24.700;2022-07-25T07:38:46;97373.13;;;30.10;50.38
6094;BME280;19964;42.060;24.700;2022-07-25T07:41:13;97409.28;;;30.64;49.78
6094;BME280;19964;42.060;24.700;2022-07-25T07:43:40;97410.31;;;30.79;48.97
6094;BME280;19964;42.060;24.700;2022-07-25T07:46:07;97406.41;;;30.31;49.03
6094;BME280;19964;42.060;24.700;2022-07-25T07:48:34;97408.59;;;30.67;48.13
6094;BME280;19964;42.060;24.700;2022-07-25T07:51:01;97404.44;;;30.93;48.25
6094;BME280;19964;42.060;24.700;2022-07-25T07:53:29;97401.25;;;31.10;47.94
6094;BME280;19964;42.060;24.700;2022-07-25T07:56:11;97394.53;;;30.74;50.31
6094;BME280;19964;42.060;24.700;2022-07-25T07:58:38;97394.16;;;31.47;48.71
6094;BME280;19964;42.060;24.700;2022-07-25T08:01:05;97397.47;;;31.67;48.53
6094;BME280;19964;42.060;24.700;2022-07-25T08:03:32;97371.59;;;31.48;46.69
6094;BME280;19964;42.060;24.700;2022-07-25T08:06:00;97401.00;;;32.04;46.13
6094;BME280;19964;42.060;24.700;2022-07-25T08:08:27;97388.69;;;31.99;45.86
6094;BME280;19964;42.060;24.700;2022-07-25T08:10:54;97390.44;;;31.88;45.84
6094;BME280;19964;42.060;24.700;2022-07-25T08:13:26;97402.16;;;31.43;46.01
6094;BME280;19964;42.060;24.700;2022-07-25T08:15:54;97398.09;;;31.86;45.17
6094;BME280;19964;42.060;24.700;2022-07-25T08:18:22;97393.16;;;32.62;44.12
6094;BME280;19964;42.060;24.700;2022-07-25T08:20:50;97394.25;;;32.97;43.50
6094;BME280;19964;42.060;24.700;2022-07-25T08:23:18;97395.44;;;33.03;42.27
6094;BME280;19964;42.060;24.700;2022-07-25T08:25:45;97398.03;;;32.46;43.76
6094;BME280;19964;42.060;24.700;2022-07-25T08:28:12;97385.03;;;32.51;43.76
6094;BME280;19964;42.060;24.700;2022-07-25T08:30:41;97390.63;;;32.79;42.31
6094;BME280;19964;42.060;24.700;2022-07-25T08:33:12;97388.88;;;32.97;40.67
6094;BME280;19964;42.060;24.700;2022-07-25T08:35:45;97388.88;;;32.97;41.88
6094;BME280;19964;42.060;24.700;2022-07-25T08:38:12;97390.22;;;33.32;41.49
6094;BME280;19964;42.060;24.700;2022-07-25T08:40:38;97393.19;;;33.84;38.86
6094;BME280;19964;42.060;24.700;2022-07-25T08:43:10;97353.34;;;33.21;41.96
6094;BME280;19964;42.060;24.700;2022-07-25T08:45:42;97381.63;;;33.70;41.86
6094;BME280;19964;42.060;24.700;2022-07-25T08:48:10;97399.88;;;34.12;38.25
6094;BME280;19964;42.060;24.700;2022-07-25T08:50:37;97387.81;;;33.84;39.10
6094;BME280;19964;42.060;24.700;2022-07-25T08:53:04;97392.94;;;34.14;38.27
6094;BME280;19964;42.060;24.700;2022-07-25T08:55:31;97394.19;;;34.48;38.45
6094;BME280;19964;42.060;24.700;2022-07-25T08:57:58;97385.34;;;34.65;38.36
6094;BME280;19964;42.060;24.700;2022-07-25T09:00:27;97350.72;;;34.57;42.80
6094;BME280;19964;42.060;24.700;2022-07-25T09:02:57;97349.44;;;33.87;40.28
6094;BME280;19964;42.060;24.700;2022-07-25T09:05:25;97384.44;;;33.98;38.87
6094;BME280;19964;42.060;24.700;2022-07-25T09:07:53;97379.09;;;34.05;40.56
6094;BME280;19964;42.060;24.700;2022-07-25T09:10:22;97379.81;;;33.98;40.58
6094;BME280;19964;42.060;24.700;2022-07-25T09:12:50;97361.50;;;33.43;41.20
6094;BME280;19964;42.060;24.700;2022-07-25T09:15:25;97381.06;;;34.40;38.37
6094;BME280;19964;42.060;24.700;2022-07-25T09:17:56;97366.84;;;34.32;37.38
6094;BME280;19964;42.060;24.700;2022-07-25T09:20:24;97368.03;;;34.77;38.90
6094;BME280;19964;42.060;24.700;2022-07-25T09:23:01;97368.03;;;35.02;35.70
6094;BME280;19964;42.060;24.700;2022-07-25T09:25:28;97340.28;;;35.12;36.29
6094;BME280;19964;42.060;24.700;2022-07-25T09:28:07;97364.53;;;34.94;37.92
6094;BME280;19964;42.060;24.700;2022-07-25T09:30:34;97369.94;;;35.22;35.35
6094;BME280;19964;42.060;24.700;2022-07-25T09:33:02;97376.03;;;35.51;36.46
6094;BME280;19964;42.060;24.700;2022-07-25T09:35:30;97371.47;;;35.16;35.49
6094;BME280;19964;42.060;24.700;2022-07-25T09:38:07;97379.56;;;34.63;34.48
6094;BME280;19964;42.060;24.700;2022-07-25T09:40:34;97363.41;;;35.13;38.54
6094;BME280;19964;42.060;24.700;2022-07-25T09:43:00;97369.13;;;35.25;35.80
6094;BME280;19964;42.060;24.700;2022-07-25T09:45:27;97376.06;;;35.33;33.80
6094;BME280;19964;42.060;24.700;2022-07-25T09:47:56;97371.03;;;35.49;34.35
6094;BME280;19964;42.060;24.700;2022-07-25T09:50:25;97367.25;;;34.87;32.78
6094;BME280;19964;42.060;24.700;2022-07-25T09:52:54;97363.00;;;35.14;34.42
6094;BME280;19964;42.060;24.700;2022-07-25T09:55:22;97334.19;;;34.48;34.17
6094;BME280;19964;42.060;24.700;2022-07-25T09:57:50;97372.66;;;34.83;35.81
6094;BME280;19964;42.060;24.700;2022-07-25T10:00:20;97364.91;;;35.24;35.00
6094;BME280;19964;42.060;24.700;2022-07-25T10:02:55;97352.63;;;35.06;35.75
6094;BME280;19964;42.060;24.700;2022-07-25T10:05:38;97359.56;;;35.03;37.09
6094;BME280;19964;42.060;24.700;2022-07-25T10:08:09;97362.97;;;35.25;33.46
6094;BME280;19964;42.060;24.700;2022-07-25T10:10:38;97346.84;;;35.18;32.86
6094;BME280;19964;42.060;24.700;2022-07-25T10:13:07;97352.16;;;35.49;33.23
6094;BME280;19964;42.060;24.700;2022-07-25T10:15:40;97345.78;;;35.91;34.25
6094;BME280;19964;42.060;24.700;2022-07-25T10:18:07;97338.88;;;35.87;34.17
6094;BME280;19964;42.060;24.700;2022-07-25T10:20:36;97335.47;;;35.79;37.46
6094;BME280;19964;42.060;24.700;2022-07-25T10:23:04;97339.19;;;34.81;37.00
6094;BME280;19964;42.060;24.700;2022-07-25T10:25:42;97337.94;;;35.28;35.41
6094;BME280;19964;42.060;24.700;2022-07-25T10:28:09;97335.34;;;35.03;34.68
6094;BME280;19964;42.060;24.700;2022-07-25T10:30:38;97323.00;;;34.81;34.11
6094;BME280;19964;42.060;24.700;2022-07-25T10:33:10;97291.56;;;35.68;36.59
6094;BME280;19964;42.060;24.700;2022-07-25T10:35:39;97319.03;;;35.35;33.21
6094;BME280;19964;42.060;24.700;2022-07-25T10:38:06;97328.75;;;35.18;35.45
6094;BME280;19964;42.060;24.700;2022-07-25T10:40:36;97333.66;;;35.44;37.40
6094;BME280;19964;42.060;24.700;2022-07-25T10:43:08;97290.44;;;35.69;34.34
6094;BME280;19964;42.060;24.700;2022-07-25T10:45:38;97310.69;;;36.02;34.39
6094;BME280;19964;42.060;24.700;2022-07-25T10:48:08;97318.72;;;36.09;32.77
6094;BME280;19964;42.060;24.700;2022-07-25T10:50:50;97299.47;;;35.13;34.06
6094;BME280;19964;42.060;24.700;2022-07-25T10:53:30;97311.00;;;33.83;36.67
6094;BME280;19964;42.060;24.700;2022-07-25T10:55:57;97310.34;;;34.50;33.74
6094;BME280;19964;42.060;24.700;2022-07-25T10:58:24;97291.00;;;35.22;35.16
6094;BME280;19964;42.060;24.700;2022-07-25T11:00:52;97299.88;;;35.12;33.74
6094;BME280;19964;42.060;24.700;2022-07-25T11:03:19;97294.59;;;34.48;34.11
6094;BME280;19964;42.060;24.700;2022-07-25T11:05:47;97301.00;;;33.84;35.16
6094;BME280;19964;42.060;24.700;2022-07-25T11:08:29;97284.94;;;34.44;35.73
6094;BME280;19964;42.060;24.700;2022-07-25T11:10:56;97286.41;;;33.88;35.36
6094;BME280;19964;42.060;24.700;2022-07-25T11:13:23;97286.88;;;34.33;35.66
6094;BME280;19964;42.060;24.700;2022-07-25T11:15:50;97288.75;;;33.93;35.01
6094;BME280;19964;42.060;24.700;2022-07-25T11:18:17;97274.56;;;34.35;34.74
6094;BME280;19964;42.060;24.700;2022-07-25T11:20:44;97274.47;;;33.79;35.92
6094;BME280;19964;42.060;24.700;2022-07-25T11:23:20;97276.44;;;33.85;36.15
6094;BME280;19964;42.060;24.700;2022-07-25T11:25:47;97263.59;;;33.40;36.84
6094;BME280;19964;42.060;24.700;2022-07-25T11:28:14;97267.59;;;33.81;37.39
6094;BME280;19964;42.060;24.700;2022-07-25T11:30:40;97263.81;;;34.21;36.29
6094;BME280;19964;42.060;24.700;2022-07-25T11:33:07;97253.78;;;33.93;36.50
6094;BME280;19964;42.060;24.700;2022-07-25T11:35:34;97258.03;;;34.01;38.77
6094;BME280;19964;42.060;24.700;2022-07-25T11:38:02;97256.44;;;33.76;37.51
6094;BME280;19964;42.060;24.700;2022-07-25T11:40:30;97249.50;;;33.68;36.06
6094;BME280;19964;42.060;24.700;2022-07-25T11:42:58;97248.03;;;34.13;37.53
6094;BME280;19964;42.060;24.700;2022-07-25T11:45:26;97255.31;;;33.98;36.13
6094;BME280;19964;42.060;24.700;2022-07-25T11:48:02;97245.84;;;33.07;37.19
6094;BME280;19964;42.060;24.700;2022-07-25T11:50:30;97247.03;;;33.24;37.58
6094;BME280;19964;42.060;24.700;2022-07-25T11:52:58;97245.56;;;33.41;37.72
6094;BME280;19964;42.060;24.700;2022-07-25T11:55:29;97210.75;;;32.76;38.45
6094;BME280;19964;42.060;24.700;2022-07-25T11:57:59;97210.63;;;32.58;38.76
6094;BME280;19964;42.060;24.700;2022-07-25T12:00:26;97234.00;;;32.54;37.92
6094;BME280;19964;42.060;24.700;2022-07-25T12:02:53;97225.75;;;32.29;38.78
6094;BME280;19964;42.060;24.700;2022-07-25T12:05:21;97240.47;;;32.46;37.85
6094;BME280;19964;42.060;24.700;2022-07-25T12:07:50;97248.38;;;32.86;38.67
6094;BME280;19964;42.060;24.700;2022-07-25T12:10:20;97236.69;;;32.58;38.62
6094;BME280;19964;42.060;24.700;2022-07-25T12:12:50;97207.59;;;32.09;39.17
6094;BME280;19964;42.060;24.700;2022-07-25T12:15:20;97247.78;;;32.49;40.80
6094;BME280;19964;42.060;24.700;2022-07-25T12:17:49;97231.53;;;32.31;38.71
6094;BME280;19964;42.060;24.700;2022-07-25T12:20:17;97192.75;;;32.22;38.47
6094;BME280;19964;42.060;24.700;2022-07-25T12:22:44;97202.44;;;32.37;39.21
6094;BME280;19964;42.060;24.700;2022-07-25T12:25:12;97232.19;;;32.72;39.48
6094;BME280;19964;42.060;24.700;2022-07-25T12:27:39;97215.06;;;32.94;39.32
6094;BME280;19964;42.060;24.700;2022-07-25T12:30:07;97228.72;;;32.68;37.36
6094;BME280;19964;42.060;24.700;2022-07-25T12:32:36;97225.72;;;32.80;38.70
6094;BME280;19964;42.060;24.700;2022-07-25T12:35:04;97222.63;;;32.75;39.53
6094;BME280;19964;42.060;24.700;2022-07-25T12:37:31;97214.84;;;32.56;40.12
6094;BME280;19964;42.060;24.700;2022-07-25T12:39:59;97189.88;;;31.97;40.36
6094;BME280;19964;42.060;24.700;2022-07-25T12:42:25;97213.13;;;32.30;39.25
6094;BME280;19964;42.060;24.700;2022-07-25T12:44:53;97207.78;;;32.37;39.75
6094;BME280;19964;42.060;24.700;2022-07-25T12:47:21;97188.06;;;32.66;41.23
6094;BME280;19964;42.060;24.700;2022-07-25T12:49:49;97212.44;;;33.08;38.40
6094;BME280;19964;42.060;24.700;2022-07-25T12:52:16;97206.34;;;33.18;38.76
6094;BME280;19964;42.060;24.700;2022-07-25T12:54:43;97198.69;;;33.20;39.79
6094;BME280;19964;42.060;24.700;2022-07-25T12:57:11;97162.81;;;32.81;39.50
6094;BME280;19964;42.060;24.700;2022-07-25T12:59:38;97196.19;;;32.77;37.75
6094;BME280;19964;42.060;24.700;2022-07-25T13:02:06;97205.03;;;32.81;39.89
6094;BME280;19964;42.060;24.700;2022-07-25T13:04:33;97204.84;;;32.46;39.57